Bishops Castle, United Kingdom
Current Conditions -  °F | °C
As of 7:50 PM on Saturday 25 Oct 2014 (Local Time) from EGOS Reporting Station
Broken Clouds Broken Clouds  
Wind Chill: 54°   Ceiling: 4100
Heat Index: 54°   Visibility: 6mi
Dew Point: 48°   Wind: 13mph
Humidity: 82%   Direction: 220°SW
Pressure: 30"   Gusts: NA
Location:  52.49°N, 3°W
Report Text: EGOS 251850Z AUTO 22011KT 9999 FEW026/// BKN041/// 12/09 Q1016
Loading
Personal Weather Stations






























Interactive Weather Map
Tropical Storm Tracking
New forecast layout! Learn more

10-Day Weather Forecast

Advertisements
Track Severe Weather on mobile